Terminal Aerodrome Forecast
Issued by NWS

Current Version | Previous Version | Graphics & Text | Print | Product List | Glossary On
Versions: 1 2 3 4 5 6 7 8 9 10 11 12 13 14 15 16 17
000
FTUS41 KILN 281700
TAFLCK
TAF
KLCK 281738Z 2818/0118 10006KT P6SM BKN100
     FM282200 10006KT P6SM SCT025 BKN070
     FM010400 11003KT P6SM -SN BKN025 OVC050
     FM010600 12003KT 3SM -SN OVC012
      TEMPO 0108/0112 1/2SM SN OVC008
     FM011200 16005KT 2SM -SN OVC009
      TEMPO 0112/0114 4SM -SNPLRA OVC015
     FM011400 18005KT 5SM -SN OVC012
      TEMPO 0115/0118 4SM -SNPLRA OVC009=

USA.gov is the U.S. government's official web portal to all federal, state and local government web resources and services.